Time;durP1;ratioP1;P1;durP2;ratioP2;P2;SDS_P1;SDS_P2;PMS_P1;PMS_P2;Temp;Humidity;BMP_temperature;BMP_pressure;BME280_temperature;BME280_humidity;BME280_pressure;Samples;Min_cycle;Max_cycle;Signal;HPM_P1;HPM_P2
2021/05/24 00:01:13;;;;;;;;;35.00;33.33;;;;;17.88;71.54;101401.16;5161361;27;10330;-82
2021/05/24 00:04:08;;;;;;;;;34.00;33.00;;;;;17.81;71.75;101392.59;5159038;27;9400;-83
2021/05/24 00:07:05;;;;;;;;;35.50;33.50;;;;;17.94;71.14;101380.13;5141668;27;9438;-81
2021/05/24 00:10:00;;;;;;;;;40.50;36.25;;;;;17.75;71.55;101377.25;5138985;27;9435;-82
2021/05/24 00:13:02;;;;;;;;;50.50;41.00;;;;;17.75;71.47;101382.84;5134858;27;9594;-82
2021/05/24 00:15:58;;;;;;;;;51.75;43.50;;;;;17.41;72.65;101379.59;5135127;27;9821;-82
2021/05/24 00:18:54;;;;;;;;;53.25;45.00;;;;;17.34;72.61;101385.00;5136790;27;10167;-83
2021/05/24 00:21:50;;;;;;;;;56.75;45.00;;;;;16.96;74.92;101388.38;5135361;27;10301;-82
2021/05/24 00:24:45;;;;;;;;;59.50;47.75;;;;;16.95;75.21;101381.19;5121627;27;10464;-82
2021/05/24 00:27:42;;;;;;;;;61.75;49.50;;;;;16.87;75.25;101387.75;5135549;27;10732;-83
2021/05/24 00:30:42;;;;;;;;;66.25;54.00;;;;;16.79;75.77;101372.75;5121187;27;10732;-82
2021/05/24 00:33:38;;;;;;;;;66.50;51.75;;;;;16.89;74.55;101372.22;5122733;27;10962;-82
2021/05/24 00:36:33;;;;;;;;;71.75;55.50;;;;;16.90;73.77;101378.63;5139695;27;11020;-82
2021/05/24 00:39:30;;;;;;;;;75.75;57.50;;;;;16.85;73.93;101379.69;5145239;27;11482;-82
2021/05/24 00:42:26;;;;;;;;;70.00;55.00;;;;;16.84;73.94;101378.06;5136131;27;11456;-83
2021/05/24 00:45:24;;;;;;;;;69.75;55.25;;;;;16.84;73.54;101380.88;5143097;27;11233;-82
2021/05/24 00:47:53;;;;;;;;;71.50;56.75;;;;;16.91;73.12;101375.47;5145591;27;11454;-82
2021/05/24 00:50:49;;;;;;;;;72.00;56.50;;;;;16.84;74.17;101382.84;5167749;27;11169;-82
2021/05/24 00:53:45;;;;;;;;;71.75;55.50;;;;;16.82;73.67;101376.81;5158964;27;11456;-82
2021/05/24 00:56:40;;;;;;;;;59.25;46.75;;;;;16.94;72.58;101371.97;5142910;27;11165;-83
2021/05/24 00:59:36;;;;;;;;;38.50;35.50;;;;;16.97;71.29;101376.03;5127725;27;10787;-82
2021/05/24 01:02:32;;;;;;;;;59.25;49.25;;;;;17.13;70.35;101374.06;5140517;27;10024;-82
2021/05/24 01:05:27;;;;;;;;;35.25;30.50;;;;;17.10;70.28;101362.78;5140699;27;10769;-81
2021/05/24 01:08:23;;;;;;;;;81.75;70.50;;;;;17.05;70.39;101374.25;5151957;27;11157;-80
2021/05/24 01:11:22;;;;;;;;;65.75;53.00;;;;;17.22;69.26;101376.69;5132530;27;12442;-82
2021/05/24 01:14:18;;;;;;;;;66.25;52.50;;;;;17.21;69.01;101372.28;5119782;27;11483;-83
2021/05/24 01:17:14;;;;;;;;;58.25;46.75;;;;;17.34;68.46;101379.41;5127926;27;11287;-82
2021/05/24 01:20:13;;;;;;;;;48.50;38.75;;;;;17.30;68.83;101383.28;5139658;27;10709;-82
2021/05/24 01:23:11;;;;;;;;;33.00;32.00;;;;;17.24;68.73;101383.53;5140123;27;10243;-82
2021/05/24 01:26:07;;;;;;;;;40.50;35.50;;;;;17.33;68.68;101375.00;5139784;27;9570;-82
2021/05/24 01:29:03;;;;;;;;;33.75;32.75;;;;;17.30;68.62;101369.31;5140587;27;10672;-82
2021/05/24 01:32:00;;;;;;;;;36.50;33.25;;;;;17.22;69.30;101368.31;5153844;27;9509;-81
2021/05/24 01:34:55;;;;;;;;;27.33;27.33;;;;;17.27;68.95;101368.03;5154402;27;9720;-81
2021/05/24 01:37:51;;;;;;;;;32.00;31.67;;;;;17.09;69.09;101361.16;5137635;27;9434;-81
2021/05/24 01:40:47;;;;;;;;;25.00;24.33;;;;;17.28;68.70;101358.47;5120381;27;9457;-81
2021/05/24 01:43:46;;;;;;;;;23.33;22.00;;;;;17.40;68.05;101357.56;5119175;27;9217;-82
2021/05/24 01:46:41;;;;;;;;;29.00;29.00;;;;;17.40;68.42;101354.78;5151481;27;9199;-81
2021/05/24 01:49:37;;;;;;;;;31.00;30.00;;;;;17.23;69.01;101356.75;5154420;27;9513;-82
2021/05/24 01:52:33;;;;;;;;;21.67;21.67;;;;;17.34;68.75;101351.47;5153510;27;9361;-82
2021/05/24 01:55:29;;;;;;;;;23.00;23.00;;;;;17.30;68.94;101355.31;5153691;27;9214;-82
2021/05/24 01:58:26;;;;;;;;;24.67;23.00;;;;;17.09;69.46;101361.97;5153402;27;9861;-82
2021/05/24 02:01:22;;;;;;;;;18.00;18.00;;;;;17.02;69.81;101360.97;5151765;27;9389;-82
2021/05/24 02:04:18;;;;;;;;;21.00;21.00;;;;;17.21;69.04;101363.88;5153715;27;9319;-82
2021/05/24 02:07:14;;;;;;;;;21.67;21.67;;;;;17.17;69.44;101360.19;5128881;27;9949;-80
2021/05/24 02:10:12;;;;;;;;;23.67;23.67;;;;;17.28;69.00;101368.84;5133231;27;9311;-82
2021/05/24 02:13:08;;;;;;;;;18.33;18.33;;;;;17.31;68.64;101360.53;5119725;27;9268;-81
2021/05/24 02:16:04;;;;;;;;;24.33;24.33;;;;;17.22;69.13;101365.50;5141868;27;8965;-80
2021/05/24 02:19:01;;;;;;;;;23.00;23.00;;;;;17.27;68.82;101362.44;5132653;27;9401;-82
2021/05/24 02:21:56;;;;;;;;;25.33;25.33;;;;;17.28;68.61;101375.25;5118865;27;9230;-83
2021/05/24 02:24:52;;;;;;;;;28.33;26.67;;;;;17.32;68.47;101364.97;5131816;27;9399;-83
2021/05/24 02:27:47;;;;;;;;;33.50;32.50;;;;;17.30;68.78;101369.31;5131849;27;9435;-82
2021/05/24 02:30:44;;;;;;;;;35.00;33.25;;;;;17.14;69.68;101375.69;5118902;27;9842;-82
2021/05/24 02:33:40;;;;;;;;;33.75;32.50;;;;;17.24;69.33;101363.16;5118568;27;9736;-82
2021/05/24 02:36:36;;;;;;;;;46.50;39.25;;;;;17.26;69.66;101365.63;5132618;27;9859;-82
2021/05/24 02:39:32;;;;;;;;;49.75;40.00;;;;;17.37;69.46;101373.09;5136370;27;10064;-82
2021/05/24 02:42:28;;;;;;;;;36.25;34.00;;;;;17.37;69.66;101375.06;5122071;27;10159;-81
2021/05/24 02:45:24;;;;;;;;;50.00;40.50;;;;;17.51;69.10;101373.44;5136481;27;9692;-81
2021/05/24 02:47:52;;;;;;;;;40.25;36.75;;;;;17.50;68.80;101371.84;5137159;27;10010;-81
2021/05/24 02:50:50;;;;;;;;;48.00;40.75;;;;;17.57;69.46;101371.19;5122440;27;10105;-81
2021/05/24 02:53:45;;;;;;;;;52.00;41.50;;;;;17.66;68.91;101371.81;5135407;27;10311;-81
2021/05/24 02:56:41;;;;;;;;;54.25;46.25;;;;;17.66;68.30;101371.81;5136017;27;10249;-81
2021/05/24 02:59:36;;;;;;;;;56.25;46.25;;;;;17.86;67.67;101375.50;5122322;27;10237;-81
2021/05/24 03:02:28;;;;;;;;;40.75;37.25;;;;;17.88;65.98;101380.75;5152908;27;10420;-82
2021/05/24 03:06:13;;;;;;;;;52.50;42.00;;;;;18.02;64.90;101381.09;5142544;27;10010;-82
2021/05/24 03:09:20;;;;;;;;;53.00;45.00;;;;;18.10;64.44;101385.69;5123566;27;10904;-82
2021/05/24 03:12:17;;;;;;;;;58.00;46.00;;;;;18.23;64.51;101386.34;5135459;27;10214;-83
2021/05/24 03:15:15;;;;;;;;;61.75;49.25;;;;;18.32;63.82;101384.13;5137514;27;10438;-82
2021/05/24 03:17:45;;;;;;;;;65.75;53.75;;;;;18.41;63.61;101393.16;5121942;27;10505;-82
2021/05/24 03:20:41;;;;;;;;;61.25;48.25;;;;;18.45;63.60;101393.22;5129162;27;10856;-81
2021/05/24 03:23:37;;;;;;;;;57.75;46.75;;;;;18.39;63.29;101395.50;5121663;27;11427;-83
2021/05/24 03:26:33;;;;;;;;;54.00;45.50;;;;;18.39;64.68;101398.28;5121648;27;10665;-79
2021/05/24 03:29:30;;;;;;;;;48.75;40.50;;;;;18.42;63.48;101393.97;5135404;27;10183;-80
2021/05/24 03:32:25;;;;;;;;;47.75;39.75;;;;;18.30;64.11;101389.31;5121593;27;9907;-81
2021/05/24 03:38:41;;;;;;;;;25.33;24.33;;;;;18.45;63.61;101393.22;5150551;27;9158;-80
2021/05/24 03:41:39;;;;;;;;;25.67;25.67;;;;;18.50;64.24;101392.94;5135479;27;8907;-83
2021/05/24 03:44:37;;;;;;;;;40.33;34.67;;;;;19.05;69.86;101399.28;5136531;27;8951;-83
2021/05/24 03:47:34;;;;;;;;;14.75;14.75;;;;;18.84;63.55;101406.06;5122188;27;9307;-84
2021/05/24 03:50:29;;;;;;;;;18.75;18.75;;;;;18.85;63.49;101410.50;5121296;27;8859;-84
2021/05/24 03:53:26;;;;;;;;;19.75;19.75;;;;;18.78;63.60;101415.16;5126346;27;8870;-82
2021/05/24 03:56:21;;;;;;;;;20.50;20.50;;;;;19.01;64.02;101415.19;5125947;27;8843;-84
2021/05/24 03:59:17;;;;;;;;;27.00;27.00;;;;;19.26;64.34;101421.31;5134766;27;8827;-84
2021/05/24 04:02:13;;;;;;;;;24.75;24.75;;;;;19.66;65.90;101416.03;5136457;27;8855;-85
2021/05/24 04:05:31;;;;;;;;;30.00;28.50;;;;;19.97;64.22;101422.53;5136692;27;8898;-83
2021/05/24 04:07:59;;;;;;;;;30.75;30.25;;;;;20.36;66.40;101417.50;5144723;27;8990;-84
2021/05/24 04:10:58;;;;;;;;;21.00;20.00;;;;;20.41;61.10;101422.78;5138076;27;8836;-84
2021/05/24 04:13:55;;;;;;;;;24.00;23.00;;;;;20.52;60.71;101420.13;5148257;27;8865;-84
2021/05/24 04:16:50;;;;;;;;;37.00;31.25;;;;;20.77;62.69;101424.06;5136911;27;8850;-83
2021/05/24 04:19:23;;;;;;;;;26.50;24.75;;;;;21.03;62.10;101417.56;5136295;27;8820;-83
2021/05/24 04:21:51;;;;;;;;;22.50;22.50;;;;;21.12;62.12;101413.63;5123718;27;8823;-81
2021/05/24 04:24:46;;;;;;;;;24.25;24.25;;;;;21.16;61.58;101414.47;5153215;27;8810;-87
2021/05/24 04:27:42;;;;;;;;;23.75;19.00;;;;;21.15;60.38;101424.91;5121993;27;8847;-85
2021/05/24 04:30:38;;;;;;;;;21.00;20.00;;;;;21.31;60.64;101419.88;5136293;27;8843;-87
2021/05/24 04:33:34;;;;;;;;;25.00;22.50;;;;;21.43;61.83;101430.06;5121351;27;8953;-87
2021/05/24 04:36:29;;;;;;;;;19.50;19.50;;;;;21.36;61.04;101430.78;5134620;27;8948;-87
2021/05/24 04:39:25;;;;;;;;;21.25;21.00;;;;;21.43;60.37;101430.06;5120868;27;8827;-87
2021/05/24 04:42:22;;;;;;;;;19.25;19.25;;;;;21.40;59.83;101438.47;5121504;27;8831;-87
2021/05/24 04:45:18;;;;;;;;;28.50;25.75;;;;;21.37;60.78;101432.41;5134734;27;8862;-80
2021/05/24 04:47:46;;;;;;;;;27.75;26.75;;;;;21.72;61.01;101438.75;5121311;27;8831;-85
2021/05/24 04:50:14;;;;;;;;;21.50;21.50;;;;;21.75;59.91;101438.78;5117367;27;8835;-85
2021/05/24 04:53:09;;;;;;;;;21.75;20.25;;;;;21.54;60.11;101438.56;5136358;27;8871;-85
2021/05/24 04:56:06;;;;;;;;;22.25;22.25;;;;;21.73;60.59;101438.38;5121228;27;8815;-86
2021/05/24 04:59:03;;;;;;;;;19.25;18.00;;;;;21.60;61.62;101426.59;5133561;27;8835;-85
2021/05/24 05:01:59;;;;;;;;;16.00;15.50;;;;;21.47;63.08;101421.63;5120532;27;8819;-85
2021/05/24 05:04:55;;;;;;;;;15.75;15.75;;;;;21.58;63.06;101425.38;5121959;27;9631;-86
2021/05/24 05:07:52;;;;;;;;;16.75;16.75;;;;;21.52;63.25;101432.53;5140458;27;8839;-84
2021/05/24 05:10:49;;;;;;;;;16.75;16.75;;;;;21.61;63.21;101438.66;5141905;27;8825;-86
2021/05/24 05:13:44;;;;;;;;;19.75;19.75;;;;;21.53;64.42;101437.78;5140395;27;8825;-86
2021/05/24 05:16:40;;;;;;;;;20.75;20.00;;;;;21.40;65.64;101449.72;5127129;27;8874;-87
2021/05/24 05:19:35;;;;;;;;;20.25;19.50;;;;;21.45;65.39;101447.34;5134482;27;8813;-81
2021/05/24 05:22:05;;;;;;;;;16.50;16.50;;;;;21.20;66.27;101449.88;5116387;27;8828;-82
2021/05/24 05:24:46;;;;;;;;;17.00;17.00;;;;;21.05;67.47;101465.78;5142026;27;8836;-79
2021/05/24 05:27:15;;;;;;;;;16.50;16.50;;;;;21.42;65.76;101467.03;5134517;27;8869;-81
2021/05/24 05:29:56;;;;;;;;;14.00;14.00;;;;;21.61;64.62;101472.41;5136279;27;8851;-82
2021/05/24 05:32:52;;;;;;;;;17.50;17.25;;;;;21.48;63.83;101476.75;5136327;27;9595;-81
2021/05/24 05:35:48;;;;;;;;;13.75;13.75;;;;;21.14;65.89;101489.97;5132876;27;8857;-83
2021/05/24 05:38:44;;;;;;;;;15.00;15.00;;;;;20.86;66.57;101485.66;5119455;27;8900;-81
2021/05/24 05:41:12;;;;;;;;;13.25;13.25;;;;;21.27;65.17;101488.53;5134076;27;8885;-81
2021/05/24 05:43:53;;;;;;;;;15.25;15.25;;;;;20.94;66.65;101494.97;5154071;27;8932;-81
2021/05/24 05:46:48;;;;;;;;;14.00;14.00;;;;;20.61;67.33;101490.91;5134227;27;8838;-80
2021/05/24 05:49:16;;;;;;;;;18.00;18.00;;;;;20.99;65.94;101486.19;5134392;27;8845;-80
2021/05/24 05:52:12;;;;;;;;;22.25;22.00;;;;;20.58;67.55;101480.44;5144794;27;8829;-80
2021/05/24 05:55:08;;;;;;;;;19.50;19.50;;;;;20.40;68.40;101485.78;5136433;27;8813;-79
2021/05/24 05:57:58;;;;;;;;;18.75;18.75;;;;;20.36;68.53;101481.28;5133421;27;8827;-81
2021/05/24 06:00:28;;;;;;;;;19.25;18.75;;;;;20.41;68.64;101478.97;5137627;27;8835;-80
2021/05/24 06:03:25;;;;;;;;;18.50;18.50;;;;;20.40;68.80;101476.56;5141004;27;8893;-81
2021/05/24 06:06:22;;;;;;;;;16.00;16.00;;;;;20.62;68.03;101477.66;5153172;27;8917;-81
2021/05/24 06:09:17;;;;;;;;;18.00;18.00;;;;;21.10;66.21;101462.63;5153177;27;8888;-79
2021/05/24 06:12:13;;;;;;;;;16.25;16.25;;;;;21.22;65.49;101472.00;5134153;27;9559;-81
2021/05/24 06:15:15;;;;;;;;;16.00;16.00;;;;;21.13;65.87;101461.06;5123105;27;9236;-81
2021/05/24 06:17:46;;;;;;;;;15.50;15.50;;;;;21.02;66.70;101474.19;5118451;27;8927;-79
2021/05/24 06:20:16;;;;;;;;;16.75;16.75;;;;;21.22;65.91;101467.19;5141765;27;8943;-81
2021/05/24 06:22:58;;;;;;;;;16.50;16.50;;;;;21.29;66.19;101469.28;5142449;27;8905;-82
2021/05/24 06:25:41;;;;;;;;;18.50;18.50;;;;;21.38;65.46;101478.22;5142321;27;8877;-82
2021/05/24 06:28:37;;;;;;;;;13.00;13.00;;;;;21.09;67.01;101488.34;5137395;27;8869;-80
2021/05/24 06:31:33;;;;;;;;;15.25;15.25;;;;;21.38;66.15;101501.53;5157564;27;8848;-82
2021/05/24 06:34:01;;;;;;;;;8.25;8.25;;;;;21.07;68.16;101507.56;5106385;27;8850;-81
2021/05/24 06:36:57;;;;;;;;;15.50;14.25;;;;;20.66;70.54;101509.47;5111395;27;8859;-81
2021/05/24 06:39:24;;;;;;;;;15.00;14.75;;;;;20.85;69.93;101514.94;5149886;27;8837;-81
2021/05/24 06:41:52;;;;;;;;;15.00;15.00;;;;;21.02;68.82;101524.81;5137462;27;8843;-81
2021/05/24 06:44:50;;;;;;;;;15.00;15.00;;;;;21.17;68.85;101523.78;5145315;27;8819;-81
2021/05/24 06:47:46;;;;;;;;;17.00;17.00;;;;;21.23;68.38;101510.19;5136113;27;8849;-82
2021/05/24 06:50:15;;;;;;;;;16.50;16.50;;;;;20.55;72.90;101509.31;5138977;27;8919;-81
2021/05/24 06:53:11;;;;;;;;;19.75;19.75;;;;;20.75;72.29;101507.97;5135648;27;8950;-82
2021/05/24 06:56:06;;;;;;;;;14.50;14.50;;;;;21.06;71.14;101500.34;5127030;27;8824;-78
2021/05/24 06:59:03;;;;;;;;;14.00;14.00;;;;;21.27;70.09;101502.59;5155561;27;9022;-81
2021/05/24 07:01:59;;;;;;;;;15.00;15.00;;;;;21.39;69.63;101499.53;5123285;27;8838;-82
2021/05/24 07:04:28;;;;;;;;;15.00;15.00;;;;;21.43;68.93;101502.41;5139890;27;8841;-81
2021/05/24 07:07:12;;;;;;;;;14.25;14.25;;;;;21.46;69.27;101502.44;5149050;27;8829;-81
2021/05/24 07:09:56;;;;;;;;;12.00;12.00;;;;;21.47;68.49;101508.88;5135251;27;8834;-81
2021/05/24 07:12:24;;;;;;;;;18.00;18.00;;;;;21.62;67.71;101508.66;5136882;27;8919;-82
2021/05/24 07:15:20;;;;;;;;;14.75;14.75;;;;;21.84;67.45;101514.47;5140213;27;8829;-81
2021/05/24 07:18:15;;;;;;;;;15.00;15.00;;;;;21.96;66.27;101516.19;5156209;27;8829;-83
2021/05/24 07:21:11;;;;;;;;;17.00;17.00;;;;;22.19;64.91;101512.00;5148263;27;8879;-83
2021/05/24 07:24:07;;;;;;;;;13.00;13.00;;;;;22.23;65.51;101503.56;5135411;27;8811;-82
2021/05/24 07:27:03;;;;;;;;;11.50;11.25;;;;;22.13;65.54;101513.53;5146565;27;8833;-83
2021/05/24 07:30:00;;;;;;;;;16.00;15.25;;;;;22.28;65.12;101520.09;5155217;27;8841;-83
2021/05/24 07:32:29;;;;;;;;;10.75;10.75;;;;;22.21;65.12;101511.59;5149163;27;8827;-82
2021/05/24 07:35:01;;;;;;;;;12.00;12.00;;;;;22.26;64.61;101516.88;5130470;27;8826;-84
2021/05/24 07:37:56;;;;;;;;;12.00;12.00;;;;;22.69;62.61;101512.31;5155464;27;8840;-83
2021/05/24 07:40:52;;;;;;;;;13.25;13.25;;;;;22.84;62.37;101529.31;5143323;27;8831;-80
2021/05/24 07:43:48;;;;;;;;;11.25;11.25;;;;;22.62;63.53;101526.38;5154933;27;8897;-83
2021/05/24 07:46:46;;;;;;;;;10.50;10.50;;;;;22.80;62.08;101523.66;5127623;27;8827;-82
2021/05/24 07:49:42;;;;;;;;;11.60;11.60;;;;;23.07;61.23;101526.22;5134532;27;8881;-82
2021/05/24 07:52:37;;;;;;;;;13.80;13.80;;;;;22.91;60.38;101520.91;5107933;27;8835;-83
2021/05/24 07:55:33;;;;;;;;;11.80;11.80;;;;;23.17;59.77;101528.31;5134821;27;8831;-82
2021/05/24 07:58:30;;;;;;;;;12.00;12.00;;;;;22.86;60.57;101522.13;5138177;27;8829;-80
2021/05/24 08:01:25;;;;;;;;;15.00;15.00;;;;;23.29;59.41;101516.63;5153679;27;8823;-83
2021/05/24 08:04:21;;;;;;;;;19.50;14.75;;;;;23.38;58.97;101519.88;5133887;27;8843;-85
2021/05/24 08:07:18;;;;;;;;;9.20;9.20;;;;;22.97;60.28;101517.31;5141331;27;8846;-82
2021/05/24 08:10:17;;;;;;;;;10.00;10.00;;;;;22.69;60.33;101514.31;5142891;27;8868;-82
2021/05/24 08:12:59;;;;;;;;;3.00;3.00;;;;;22.54;60.22;101518.25;5141801;27;8848;-82
2021/05/24 08:15:55;;;;;;;;;26.75;26.25;;;;;22.79;59.76;101513.59;5126848;27;8853;-87
2021/05/24 08:18:50;;;;;;;;;19.25;19.25;;;;;22.85;59.76;101517.69;5142435;27;8847;-88
2021/05/24 08:21:27;;;;;;;;;8.00;8.00;;;;;22.61;58.68;101515.47;5128943;27;8831;-83
2021/05/24 08:24:22;;;;;;;;;7.60;7.60;;;;;22.75;58.23;101521.22;5148837;27;8872;-83
2021/05/24 08:26:49;;;;;;;;;12.00;12.00;;;;;22.67;58.35;101523.19;5156077;27;8913;-85
2021/05/24 08:29:48;;;;;;;;;11.75;11.75;;;;;22.80;58.15;101517.22;5158212;27;8845;-79
2021/05/24 08:32:43;;;;;;;;;14.25;14.25;;;;;22.75;57.96;101507.91;5154410;27;8825;-79
2021/05/24 08:35:39;;;;;;;;;9.80;9.80;;;;;22.78;57.42;101509.16;5146850;27;9551;-81
2021/05/24 08:38:24;;;;;;;;;11.50;11.50;;;;;22.71;58.76;101509.13;5134505;27;8839;-79
2021/05/24 08:41:19;;;;;;;;;11.40;10.40;;;;;22.34;59.05;101504.44;5137378;27;8871;-79
2021/05/24 08:44:15;;;;;;;;;8.75;8.75;;;;;22.46;57.92;101504.13;5154369;27;8910;-80
2021/05/24 08:46:48;;;;;;;;;9.50;9.50;;;;;22.51;57.20;101494.50;5155441;27;8825;-80
2021/05/24 08:49:38;;;;;;;;;13.25;13.25;;;;;22.66;57.13;101501.84;5155462;27;9545;-80
2021/05/24 08:52:28;;;;;;;;;10.25;10.25;;;;;22.80;55.67;101503.94;5155444;27;8848;-79
2021/05/24 08:55:12;;;;;;;;;16.25;16.25;;;;;22.78;56.85;101502.72;5154215;27;8902;-83
2021/05/24 08:57:42;;;;;;;;;9.75;9.50;;;;;22.57;53.73;101509.03;5155356;27;9779;-82
2021/05/24 09:00:39;;;;;;;;;8.80;8.80;;;;;22.84;53.24;101506.75;5127017;27;8839;-89
2021/05/24 09:03:36;;;;;;;;;5.40;5.00;;;;;22.65;50.93;101517.13;5124780;27;8831;-83
2021/05/24 09:06:44;;;;;;;;;7.25;7.25;;;;;22.45;53.39;101525.06;5137337;27;8839;-86
2021/05/24 09:09:58;;;;;;;;;11.50;11.50;;;;;22.76;51.61;101520.81;5129969;27;8848;-88
2021/05/24 09:12:40;;;;;;;;;8.40;8.40;;;;;22.86;52.34;101532.59;5140523;27;9604;-88
2021/05/24 09:15:14;;;;;;;;;11.40;11.40;;;;;22.80;51.82;101529.31;5142794;27;8831;-88
2021/05/24 09:17:58;;;;;;;;;8.20;8.00;;;;;22.42;52.38;101542.75;5124030;27;8930;-85
2021/05/24 09:20:57;;;;;;;;;11.00;11.00;;;;;22.72;52.49;101533.28;5143380;27;8866;-87
2021/05/24 09:24:23;;;;;;;;;8.00;8.00;;;;;22.71;53.06;101538.13;5143467;27;8823;-87
2021/05/24 09:27:22;;;;;;;;;13.00;13.00;;;;;23.02;51.78;101541.53;5122436;27;9134;-87
2021/05/24 09:30:25;;;;;;;;;9.20;9.20;;;;;22.31;51.42;101553.13;5154717;27;9633;-86
2021/05/24 09:33:12;;;;;;;;;8.75;8.75;;;;;22.39;51.94;101559.63;5140478;27;8862;-87
2021/05/24 09:36:08;;;;;;;;;8.75;8.75;;;;;22.38;53.18;101572.91;5143457;27;8936;-90
2021/05/24 09:39:09;;;;;;;;;5.50;5.50;;;;;22.13;51.83;101567.06;5156517;27;8824;-91
2021/05/24 09:42:08;;;;;;;;;5.50;5.50;;;;;21.72;51.91;101582.34;5157508;27;8922;-85
2021/05/24 09:45:18;;;;;;;;;7.25;7.25;;;;;22.14;52.21;101590.41;5144946;27;8856;-88
2021/05/24 09:47:49;;;;;;;;;11.25;11.25;;;;;22.23;53.19;101595.72;5125707;27;8857;-92
2021/05/24 09:50:55;;;;;;;;;11.50;11.50;;;;;22.38;52.00;101597.47;5147877;27;8851;-90
2021/05/24 09:54:10;;;;;;;;;11.50;11.50;;;;;22.35;53.32;101604.69;5147650;27;8825;-82
2021/05/24 09:57:10;;;;;;;;;11.25;11.25;;;;;22.36;53.23;101603.50;5148408;27;8837;-88
2021/05/24 10:00:17;;;;;;;;;10.50;10.50;;;;;22.50;52.85;101600.00;5143998;27;8825;-89
2021/05/24 10:02:47;;;;;;;;;9.00;9.00;;;;;22.23;53.14;101607.81;5104388;28;9712;-87
2021/05/24 10:05:46;;;;;;;;;9.75;9.75;;;;;22.29;53.17;101605.44;5097396;28;8849;-82
2021/05/24 10:08:43;;;;;;;;;8.00;8.00;;;;;22.03;53.10;101595.13;5097000;28;8841;-77
2021/05/24 10:11:44;;;;;;;;;9.75;9.75;;;;;21.67;55.41;101589.09;5096371;28;8861;-75
2021/05/24 10:14:39;;;;;;;;;12.00;12.00;;;;;22.00;56.16;101576.16;5105863;28;8858;-79
2021/05/24 10:17:23;;;;;;;;;12.75;12.75;;;;;22.11;56.37;101591.19;5116812;28;8887;-79
2021/05/24 10:20:20;;;;;;;;;14.25;14.25;;;;;21.92;57.41;101583.72;5116590;28;8885;-77
2021/05/24 10:23:16;;;;;;;;;14.00;14.00;;;;;21.38;59.02;101587.97;5116372;28;8834;-80
2021/05/24 10:26:15;;;;;;;;;12.50;12.50;;;;;21.47;60.21;101577.25;5116521;28;8880;-79
2021/05/24 10:29:12;;;;;;;;;12.25;12.25;;;;;21.48;60.60;101567.59;5105885;28;8833;-78
2021/05/24 10:32:08;;;;;;;;;11.50;11.50;;;;;21.47;61.37;101528.56;5105680;28;9623;-78
2021/05/24 10:35:46;;;;;;;;;14.50;14.50;;;;;21.52;62.19;101503.69;5110744;28;8817;-79
2021/05/24 10:38:42;;;;;;;;;13.50;13.50;;;;;21.42;63.10;101493.16;5097285;28;8844;-77
2021/05/24 10:41:46;;;;;;;;;14.00;14.00;;;;;21.47;64.35;101475.94;5094611;28;8928;-77
2021/05/24 10:44:45;;;;;;;;;12.75;12.75;;;;;21.13;66.07;101472.31;5081377;28;8821;-76
2021/05/24 10:47:52;;;;;;;;;12.00;12.00;;;;;21.22;63.97;101464.34;5095663;28;8845;-76
2021/05/24 10:51:10;;;;;;;;;12.75;12.75;;;;;21.20;63.84;101454.69;5094000;28;8848;-78
2021/05/24 10:54:06;;;;;;;;;12.75;12.75;;;;;20.89;67.50;101430.66;5093881;28;8922;-77
2021/05/24 10:57:06;;;;;;;;;13.50;13.50;;;;;21.02;67.54;101401.06;5094885;28;8857;-78
2021/05/24 11:00:12;;;;;;;;;14.75;14.75;;;;;21.26;67.00;101374.41;5096302;28;8864;-77
2021/05/24 11:03:08;;;;;;;;;14.50;14.50;;;;;21.19;66.05;101383.56;5136673;27;8855;-76
2021/05/24 11:06:17;;;;;;;;;13.00;13.00;;;;;20.87;67.92;101379.63;5123410;27;8923;-77
2021/05/24 11:09:09;;;;;;;;;16.25;16.25;;;;;21.00;66.46;101411.88;5156435;27;8829;-76
2021/05/24 11:12:10;;;;;;;;;19.00;19.00;;;;;20.85;68.39;101424.16;5157305;27;8844;-77
2021/05/24 11:15:13;;;;;;;;;20.50;20.50;;;;;20.81;69.21;101426.94;5156439;27;8962;-77
2021/05/24 11:18:11;;;;;;;;;20.75;20.75;;;;;20.76;70.55;101424.47;5156105;27;9711;-75
2021/05/24 11:21:24;;;;;;;;;17.50;17.00;;;;;20.62;70.10;101419.47;5135355;27;8838;-79
2021/05/24 11:27:18;;;;;;;;;17.25;17.25;;;;;20.38;71.19;101408.69;5155506;27;8848;-77
2021/05/24 11:30:39;;;;;;;;;14.75;14.75;;;;;20.45;69.52;101395.56;5121782;27;8843;-78
2021/05/24 11:33:49;;;;;;;;;13.75;13.75;;;;;20.29;70.36;101403.34;5135593;27;8827;-78
2021/05/24 11:36:45;;;;;;;;;16.00;16.00;;;;;20.37;71.05;101387.41;5145040;27;9652;-77
2021/05/24 11:39:12;;;;;;;;;17.75;17.75;;;;;20.32;71.01;101396.97;5138477;27;8952;-75
2021/05/24 11:41:53;;;;;;;;;16.00;16.00;;;;;20.40;72.09;101376.22;5135849;27;8831;-76
2021/05/24 11:44:50;;;;;;;;;14.00;13.00;;;;;20.61;69.36;101349.59;5134494;27;8854;-77
2021/05/24 11:47:24;;;;;;;;;17.75;17.75;;;;;20.73;67.88;101354.97;5139610;27;8878;-76
2021/05/24 11:50:03;;;;;;;;;12.50;12.50;;;;;20.75;68.53;101364.63;5143828;27;8829;-75
2021/05/24 11:52:59;;;;;;;;;17.50;17.50;;;;;20.76;68.65;101365.44;5139409;27;8817;-77
2021/05/24 11:56:12;;;;;;;;;15.50;15.50;;;;;21.09;68.12;101354.16;5151172;27;8823;-75
2021/05/24 11:59:10;;;;;;;;;16.50;16.50;;;;;21.02;69.67;101365.31;5142625;27;9592;-76
2021/05/24 12:02:07;;;;;;;;;14.75;14.75;;;;;21.31;68.64;101352.34;5134053;27;8942;-77
2021/05/24 12:05:04;;;;;;;;;9.00;9.00;;;;;21.19;62.64;101338.56;5138236;27;9552;-77
2021/05/24 12:07:31;;;;;;;;;11.00;11.00;;;;;21.37;62.42;101330.31;5156150;27;8856;-76
2021/05/24 12:10:13;;;;;;;;;10.25;10.25;;;;;21.62;63.57;101324.88;5153526;27;8887;-77
2021/05/24 12:13:08;;;;;;;;;10.50;10.50;;;;;22.36;62.27;101326.53;5143382;27;8845;-76
2021/05/24 12:16:06;;;;;;;;;8.00;8.00;;;;;22.88;58.12;101339.22;5134725;27;8935;-77
2021/05/24 12:18:52;;;;;;;;;6.60;6.60;;;;;23.39;56.60;101337.25;5135094;27;8835;-76
2021/05/24 12:21:35;;;;;;;;;5.20;5.20;;;;;23.57;52.94;101340.88;5134284;27;8903;-76
2021/05/24 12:24:09;;;;;;;;;5.40;5.40;;;;;23.62;54.07;101334.03;5134846;27;9036;-77
2021/05/24 12:26:39;;;;;;;;;4.00;3.40;;;;;23.48;51.80;101346.94;5117103;27;9616;-75
2021/05/24 12:29:09;;;;;;;;;5.20;5.20;;;;;23.66;51.93;101343.31;5135186;27;8847;-77
2021/05/24 12:31:46;;;;;;;;;6.20;6.20;;;;;23.39;51.02;101345.72;5134961;27;8911;-76
2021/05/24 12:34:15;;;;;;;;;6.00;6.00;;;;;23.25;53.53;101338.06;5133474;27;8891;-76
2021/05/24 12:37:13;;;;;;;;;4.60;4.60;;;;;23.42;53.17;101342.09;5133810;27;9025;-76
2021/05/24 12:40:11;;;;;;;;;5.40;5.40;;;;;23.39;52.27;101343.72;5133470;27;9572;-75
2021/05/24 12:42:41;;;;;;;;;6.00;6.00;;;;;23.20;53.40;101329.97;5130049;27;9553;-78
2021/05/24 12:45:37;;;;;;;;;5.40;5.40;;;;;23.01;50.24;101329.16;5153993;27;8821;-76
2021/05/24 12:48:32;;;;;;;;;5.00;5.00;;;;;22.71;51.71;101323.03;5154179;27;8836;-76
2021/05/24 12:51:22;;;;;;;;;5.20;5.20;;;;;22.58;52.71;101321.78;5154957;27;8837;-77
2021/05/24 12:54:18;;;;;;;;;6.80;6.80;;;;;22.33;52.45;101318.88;5154064;27;8929;-75
2021/05/24 12:57:21;;;;;;;;;4.40;4.40;;;;;22.31;53.47;101326.91;5149902;27;8906;-77
2021/05/24 13:00:17;;;;;;;;;6.00;6.00;;;;;21.73;53.14;101317.31;5133173;27;8843;-75
2021/05/24 13:03:57;;;;;;;;;6.80;6.80;;;;;22.06;54.90;101321.91;5132973;27;8815;-75
2021/05/24 13:06:24;;;;;;;;;5.00;5.00;;;;;22.08;54.23;101321.56;5134282;27;8896;-76
2021/05/24 13:09:26;;;;;;;;;10.00;9.50;;;;;22.39;54.20;101312.47;5141675;27;8841;-74
2021/05/24 13:12:25;;;;;;;;;5.60;5.60;;;;;22.56;53.52;101307.28;5150654;27;8963;-75
2021/05/24 13:15:37;;;;;;;;;7.40;7.40;;;;;22.66;51.74;101314.94;5145185;27;8847;-75
2021/05/24 13:25:48;;;;;;;;;6.00;6.00;;;;;23.26;52.57;101325.56;5118285;27;8891;-77
2021/05/24 13:29:10;;;;;;;;;4.40;4.40;;;;;21.86;52.97;101341.13;5133969;27;9535;-74
2021/05/24 13:32:06;;;;;;;;;6.00;6.00;;;;;22.64;53.61;101342.75;5119204;27;8858;-72